Time;durP1;ratioP1;P1;durP2;ratioP2;P2;SDS_P1;SDS_P2;PMS_P1;PMS_P2;Temp;Humidity;BMP_temperature;BMP_pressure;BME280_temperature;BME280_humidity;BME280_pressure;Samples;Min_cycle;Max_cycle;Signal;HPM_P1;HPM_P2
2022/11/03 00:01:36;;;;;;;14.45;7.97;;;;;;;10.14;100.00;99469.91;4470440;32;20152;-74
2022/11/03 00:04:05;;;;;;;13.98;7.70;;;;;;;10.12;100.00;99469.19;4478217;32;20096;-74
2022/11/03 00:06:33;;;;;;;17.27;7.25;;;;;;;10.21;100.00;99472.91;4486395;31;20574;-74
2022/11/03 00:09:02;;;;;;;14.63;7.03;;;;;;;10.29;100.00;99465.28;4472885;31;20512;-74
2022/11/03 00:11:31;;;;;;;16.33;7.62;;;;;;;10.36;100.00;99460.44;4470332;32;20108;-74
2022/11/03 00:13:58;;;;;;;12.98;6.80;;;;;;;10.43;100.00;99459.84;4470411;32;20530;-74
2022/11/03 00:16:25;;;;;;;11.60;7.00;;;;;;;10.44;100.00;99453.63;4470365;32;20104;-75
2022/11/03 00:18:53;;;;;;;16.83;7.50;;;;;;;10.38;100.00;99458.53;4470231;32;20101;-74
2022/11/03 00:21:21;;;;;;;11.07;6.95;;;;;;;10.39;100.00;99462.81;4470326;32;20105;-74
2022/11/03 00:23:49;;;;;;;13.60;6.55;;;;;;;10.44;100.00;99461.50;4470151;32;20120;-74
2022/11/03 00:26:27;;;;;;;14.35;7.20;;;;;;;10.45;100.00;99460.56;4470371;32;20089;-74
2022/11/03 00:28:56;;;;;;;16.00;6.35;;;;;;;10.50;100.00;99460.19;4470320;32;20084;-74
2022/11/03 00:31:31;;;;;;;15.45;6.82;;;;;;;10.59;100.00;99463.88;4470125;32;20501;-74
2022/11/03 00:33:59;;;;;;;11.57;6.80;;;;;;;10.59;100.00;99450.78;4470109;32;20474;-74
2022/11/03 00:36:32;;;;;;;15.38;6.40;;;;;;;10.60;100.00;99468.19;4470390;32;20131;-74
2022/11/03 00:38:59;;;;;;;9.95;6.07;;;;;;;10.62;100.00;99466.28;4470136;32;20092;-74
2022/11/03 00:44:26;;;;;;;13.15;6.65;;;;;;;10.61;100.00;99454.97;4469142;32;20088;-74
2022/11/03 00:46:53;;;;;;;16.80;7.37;;;;;;;10.54;100.00;99452.94;4470119;32;20152;-74
2022/11/03 00:49:20;;;;;;;18.52;6.72;;;;;;;10.53;100.00;99462.56;4469960;32;20463;-74
2022/11/03 00:51:47;;;;;;;14.38;6.62;;;;;;;10.45;100.00;99457.94;4469856;32;20096;-74
2022/11/03 00:54:14;;;;;;;15.13;7.35;;;;;;;10.46;100.00;99457.00;4470112;32;20157;-75
2022/11/03 00:56:43;;;;;;;12.50;7.37;;;;;;;10.42;100.00;99452.94;4470183;32;20093;-74
2022/11/03 01:03:10;;;;;;;13.48;7.12;;;;;;;10.40;100.00;99456.62;4472122;32;20460;-74
2022/11/03 01:08:33;;;;;;;15.20;7.57;;;;;;;10.46;100.00;99446.50;4476325;31;20137;-74
2022/11/03 01:13:54;;;;;;;26.83;7.60;;;;;;;10.59;100.00;99435.06;4470201;32;20525;-74
2022/11/03 01:16:22;;;;;;;11.63;7.10;;;;;;;10.65;100.00;99434.59;4470135;32;20194;-74
2022/11/03 01:18:50;;;;;;;15.15;7.85;;;;;;;10.63;100.00;99426.84;4470084;32;20116;-74
2022/11/03 01:21:17;;;;;;;12.88;6.47;;;;;;;10.65;100.00;99424.09;4469818;32;20101;-74
2022/11/03 01:23:45;;;;;;;14.57;7.12;;;;;;;10.60;100.00;99421.03;4469746;32;20126;-74
2022/11/03 01:26:13;;;;;;;14.95;5.70;;;;;;;10.61;100.00;99422.66;4469944;32;20088;-74
2022/11/03 01:28:43;;;;;;;13.85;6.72;;;;;;;10.63;100.00;99415.53;4469823;32;20105;-74
2022/11/03 01:31:13;;;;;;;15.48;6.47;;;;;;;10.68;100.00;99417.78;4469867;32;20175;-74
2022/11/03 01:33:40;;;;;;;16.45;5.95;;;;;;;10.65;100.00;99427.53;4469672;32;20461;-74
2022/11/03 01:36:08;;;;;;;8.00;5.32;;;;;;;10.68;100.00;99428.28;4469813;32;20223;-74
2022/11/03 01:38:36;;;;;;;16.60;6.12;;;;;;;10.69;100.00;99430.78;4469665;32;20458;-74
2022/11/03 01:41:06;;;;;;;14.15;6.45;;;;;;;10.63;100.00;99428.63;4469781;32;20093;-75
2022/11/03 01:43:36;;;;;;;14.10;6.03;;;;;;;10.59;100.00;99432.44;4469822;32;20435;-74
2022/11/03 01:46:09;;;;;;;9.75;5.80;;;;;;;10.66;100.00;99431.00;4468681;32;20110;-74
2022/11/03 01:48:40;;;;;;;14.23;5.95;;;;;;;10.61;100.00;99428.75;4469969;32;20453;-75
2022/11/03 01:51:08;;;;;;;12.55;6.37;;;;;;;10.60;100.00;99428.87;4468692;32;20113;-74
2022/11/03 01:53:37;;;;;;;13.23;5.90;;;;;;;10.54;100.00;99430.19;4469725;32;20126;-74
2022/11/03 01:56:04;;;;;;;10.32;4.90;;;;;;;10.50;100.00;99423.53;4468624;32;20475;-74
2022/11/03 01:58:33;;;;;;;9.27;4.95;;;;;;;10.52;100.00;99426.03;4468617;32;20453;-74
2022/11/03 02:01:01;;;;;;;12.13;5.80;;;;;;;10.53;100.00;99425.06;4469656;32;20089;-74
2022/11/03 02:03:34;;;;;;;13.85;5.20;;;;;;;10.47;100.00;99424.59;4472335;32;20217;-74
2022/11/03 02:06:03;;;;;;;7.15;3.97;;;;;;;10.51;100.00;99417.34;4483894;32;20426;-74
2022/11/03 02:08:35;;;;;;;10.65;5.70;;;;;;;10.58;100.00;99421.16;4464884;32;20454;-74
2022/11/03 02:12:05;;;;;;;7.82;4.10;;;;;;;10.58;100.00;99425.53;4454042;32;20148;-74
2022/11/03 02:13:49;;;;;;;9.38;4.10;;;;;;;10.58;100.00;99425.53;4454147;32;20592;-74
2022/11/03 02:16:17;;;;;;;7.70;3.40;;;;;;;10.49;100.00;99432.31;4454176;32;20121;-74
2022/11/03 02:18:45;;;;;;;19.67;8.23;;;;;;;10.53;100.00;99432.94;4454066;32;20160;-74
2022/11/03 02:21:21;;;;;;;15.88;8.90;;;;;;;10.34;100.00;99436.13;4452740;32;20093;-75
2022/11/03 02:24:05;;;;;;;17.08;8.95;;;;;;;10.03;100.00;99444.53;4454116;32;20102;-74
2022/11/03 02:26:32;;;;;;;16.35;9.15;;;;;;;9.70;100.00;99447.91;4453988;32;20422;-75
2022/11/03 02:28:59;;;;;;;18.98;10.02;;;;;;;9.38;100.00;99449.34;4453854;32;20120;-74
2022/11/03 02:31:30;;;;;;;18.83;9.93;;;;;;;9.17;100.00;99449.12;4453560;32;20171;-74
2022/11/03 02:34:06;;;;;;;16.62;9.57;;;;;;;8.96;100.00;99437.63;4453847;32;20150;-74
2022/11/03 02:37:11;;;;;;;16.40;8.52;;;;;;;8.85;100.00;99444.44;4453831;32;20093;-75
2022/11/03 02:39:46;;;;;;;11.37;5.67;;;;;;;8.67;100.00;99436.13;4451400;32;20481;-74
2022/11/03 02:42:14;;;;;;;10.85;4.18;;;;;;;8.84;100.00;99429.72;4452649;32;20668;-74
2022/11/03 02:44:42;;;;;;;13.00;4.30;;;;;;;9.16;100.00;99428.34;4452591;32;20156;-74
2022/11/03 02:47:10;;;;;;;11.00;4.15;;;;;;;9.39;100.00;99429.28;4452662;32;20094;-74
2022/11/03 02:49:39;;;;;;;9.13;4.25;;;;;;;9.53;100.00;99425.66;4452471;32;20645;-74
2022/11/03 02:52:47;;;;;;;17.05;4.12;;;;;;;9.57;100.00;99427.91;4453788;32;20080;-74
2022/11/03 02:55:41;;;;;;;6.15;3.40;;;;;;;9.66;100.00;99426.41;4453688;32;20429;-74
2022/11/03 02:58:31;;;;;;;9.43;3.37;;;;;;;9.71;100.00;99418.19;4453696;32;20189;-74
2022/11/03 03:01:13;;;;;;;8.65;4.40;;;;;;;9.72;100.00;99423.31;4453716;32;20127;-74
2022/11/03 03:03:46;;;;;;;10.57;4.43;;;;;;;9.71;100.00;99420.81;4463023;32;20123;-74
2022/11/03 03:06:30;;;;;;;10.38;3.87;;;;;;;9.71;100.00;99412.97;4483509;32;20167;-74
2022/11/03 03:09:02;;;;;;;11.77;3.58;;;;;;;9.67;100.00;99404.50;4472162;31;20118;-74
2022/11/03 03:11:38;;;;;;;8.20;5.57;;;;;;;9.66;100.00;99415.94;4469036;32;20089;-74
2022/11/03 03:14:12;;;;;;;7.62;3.85;;;;;;;9.61;100.00;99410.19;4467816;32;20107;-74
2022/11/03 03:16:47;;;;;;;7.75;3.70;;;;;;;9.50;100.00;99424.06;4467801;32;20180;-74
2022/11/03 03:19:35;;;;;;;12.23;6.68;;;;;;;9.39;100.00;99414.41;4467904;32;20442;-74
2022/11/03 03:22:23;;;;;;;14.65;7.12;;;;;;;9.13;100.00;99413.72;4467539;32;20147;-74
2022/11/03 03:24:56;;;;;;;14.52;7.30;;;;;;;8.86;100.00;99414.78;4467586;32;20100;-74
2022/11/03 03:27:25;;;;;;;15.80;8.95;;;;;;;8.65;100.00;99419.75;4469260;32;20513;-74
2022/11/03 03:29:56;;;;;;;19.40;9.50;;;;;;;8.33;100.00;99414.97;4467783;32;20093;-74
2022/11/03 03:32:25;;;;;;;17.20;9.80;;;;;;;8.20;100.00;99414.16;4467571;32;20123;-74
2022/11/03 03:34:53;;;;;;;16.00;9.52;;;;;;;7.99;100.00;99419.94;4467405;32;20131;-74
2022/11/03 03:37:22;;;;;;;18.27;10.63;;;;;;;7.91;100.00;99419.59;4467346;32;20144;-74
2022/11/03 03:39:52;;;;;;;19.85;10.88;;;;;;;7.70;100.00;99418.44;4467360;32;20096;-74
2022/11/03 03:42:21;;;;;;;21.85;11.12;;;;;;;7.62;100.00;99417.19;4467131;32;20507;-74
2022/11/03 03:44:49;;;;;;;21.33;11.23;;;;;;;7.52;100.00;99413.50;4467600;32;20158;-74
2022/11/03 03:47:21;;;;;;;24.05;10.98;;;;;;;7.51;100.00;99419.69;4467276;32;20210;-74
2022/11/03 03:49:48;;;;;;;18.33;9.45;;;;;;;7.44;100.00;99411.41;4467444;32;20081;-74
2022/11/03 03:52:16;;;;;;;19.30;9.65;;;;;;;7.44;100.00;99405.38;4467355;32;20116;-74
2022/11/03 03:54:43;;;;;;;17.87;8.77;;;;;;;7.34;100.00;99405.13;4468540;32;20089;-74
2022/11/03 03:57:14;;;;;;;19.20;9.50;;;;;;;7.27;100.00;99402.09;4468359;32;20149;-74
2022/11/03 03:59:42;;;;;;;15.15;6.97;;;;;;;7.26;100.00;99415.22;4468347;32;20159;-74
2022/11/03 04:02:11;;;;;;;16.55;6.93;;;;;;;7.24;100.00;99414.50;4468273;32;20500;-74
2022/11/03 04:04:38;;;;;;;13.60;7.30;;;;;;;7.19;100.00;99420.00;4479826;32;20092;-74
2022/11/03 04:09:52;;;;;;;9.35;4.85;;;;;;;7.12;100.00;99423.94;4468289;32;20089;-74
2022/11/03 04:23:43;;;;;;;11.68;5.60;;;;;;;7.09;100.00;99416.31;4434531;32;20197;-75
2022/11/03 04:26:12;;;;;;;10.10;5.10;;;;;;;7.05;100.00;99409.62;4435829;32;20173;-74
2022/11/03 04:28:40;;;;;;;15.50;4.00;;;;;;;7.10;100.00;99405.81;4436803;32;20107;-74
2022/11/03 04:31:11;;;;;;;6.40;3.53;;;;;;;7.23;100.00;99408.44;4424046;32;20171;-74
2022/11/03 04:33:40;;;;;;;7.60;3.05;;;;;;;7.36;100.00;99416.31;4436564;32;20136;-74
2022/11/03 04:36:20;;;;;;;7.50;3.10;;;;;;;7.41;100.00;99416.00;4423992;32;20125;-74
2022/11/03 04:38:49;;;;;;;7.32;2.65;;;;;;;7.49;100.00;99411.09;4436702;32;20214;-74
2022/11/03 04:41:20;;;;;;;10.15;3.12;;;;;;;7.52;100.00;99413.50;4436767;32;20094;-74
2022/11/03 04:43:49;;;;;;;6.80;3.10;;;;;;;7.52;100.00;99416.09;4424075;32;20140;-74
2022/11/03 04:46:22;;;;;;;4.97;3.05;;;;;;;7.54;100.00;99422.06;4436682;32;20119;-74
2022/11/03 04:48:52;;;;;;;6.65;3.17;;;;;;;7.58;100.00;99423.53;4436781;32;20274;-74
2022/11/03 04:51:21;;;;;;;8.80;3.70;;;;;;;7.61;100.00;99425.09;4436572;32;20103;-74
2022/11/03 04:53:52;;;;;;;8.98;3.80;;;;;;;7.60;100.00;99423.41;4431237;32;20105;-74
2022/11/03 04:56:21;;;;;;;7.93;3.53;;;;;;;7.57;100.00;99427.09;4468804;32;20123;-74
2022/11/03 04:58:48;;;;;;;5.03;3.03;;;;;;;7.53;100.00;99428.22;4469085;32;20461;-74
2022/11/03 05:01:21;;;;;;;9.27;3.20;;;;;;;7.43;100.00;99428.00;4470359;32;20122;-74
2022/11/03 05:03:55;;;;;;;6.18;3.12;;;;;;;7.55;100.00;99422.91;4476223;32;20896;-74
2022/11/03 05:06:25;;;;;;;6.40;2.95;;;;;;;7.55;100.00;99421.13;4485746;31;20100;-76
2022/11/03 05:08:58;;;;;;;6.10;3.47;;;;;;;7.56;100.00;99420.19;4473564;31;20206;-76
2022/11/03 05:11:33;;;;;;;6.05;2.95;;;;;;;7.59;100.00;99421.78;4470016;32;20101;-77
2022/11/03 05:14:03;;;;;;;13.95;3.78;;;;;;;7.59;100.00;99416.56;4470041;32;20696;-76
2022/11/03 05:16:30;;;;;;;6.55;2.87;;;;;;;7.58;100.00;99423.53;4468816;32;20096;-75
2022/11/03 05:18:57;;;;;;;8.25;2.90;;;;;;;7.56;100.00;99417.59;4470310;32;20140;-76
2022/11/03 05:21:26;;;;;;;5.72;2.70;;;;;;;7.60;100.00;99416.44;4468828;32;20123;-77
2022/11/03 05:24:01;;;;;;;4.03;2.40;;;;;;;7.67;100.00;99421.25;4468819;32;20119;-77
2022/11/03 05:26:30;;;;;;;6.82;2.65;;;;;;;7.67;100.00;99426.47;4468976;32;20107;-77
2022/11/03 05:29:01;;;;;;;6.97;2.25;;;;;;;7.68;100.00;99423.75;4468470;32;20085;-78
2022/11/03 05:31:31;;;;;;;3.67;2.28;;;;;;;7.72;100.00;99424.38;4468591;32;20108;-76
2022/11/03 05:34:00;;;;;;;7.45;3.03;;;;;;;7.73;100.00;99421.66;4468652;32;20100;-77
2022/11/03 05:36:32;;;;;;;8.43;3.12;;;;;;;7.73;100.00;99420.84;4469798;32;20482;-76
2022/11/03 05:39:14;;;;;;;7.32;2.78;;;;;;;7.76;100.00;99415.41;4467764;32;20110;-77
2022/11/03 05:41:41;;;;;;;9.35;2.30;;;;;;;7.86;100.00;99421.69;4469169;32;20179;-77
2022/11/03 05:44:35;;;;;;;4.45;2.33;;;;;;;7.94;100.00;99424.59;4467751;32;20100;-78
2022/11/03 05:47:17;;;;;;;5.30;2.10;;;;;;;8.03;100.00;99419.72;4464097;32;20148;-76
2022/11/03 05:49:45;;;;;;;5.03;2.22;;;;;;;8.09;100.00;99412.28;4462630;32;20136;-77
2022/11/03 05:52:16;;;;;;;4.93;2.33;;;;;;;8.14;100.00;99425.03;4466052;32;20163;-78
2022/11/03 05:54:43;;;;;;;5.10;2.08;;;;;;;8.32;100.00;99418.53;4465704;32;20996;-77
2022/11/03 05:57:12;;;;;;;2.60;1.92;;;;;;;8.38;100.00;99425.09;4465619;32;20130;-78
2022/11/03 05:59:42;;;;;;;2.90;1.83;;;;;;;8.52;100.00;99416.31;4465736;32;20168;-77
2022/11/03 06:02:27;;;;;;;3.97;1.75;;;;;;;8.65;100.00;99421.53;4462550;32;20100;-77
2022/11/03 06:04:55;;;;;;;4.57;1.90;;;;;;;8.91;100.00;99417.06;4463548;32;20865;-76
2022/11/03 06:07:25;;;;;;;7.47;3.05;;;;;;;9.13;100.00;99429.41;4461846;32;20096;-76
2022/11/03 06:09:52;;;;;;;10.48;4.68;;;;;;;9.22;100.00;99448.84;4464026;32;20105;-74
2022/11/03 06:12:21;;;;;;;10.40;3.58;;;;;;;9.05;100.00;99447.41;4468851;32;20120;-77
2022/11/03 06:14:48;;;;;;;5.75;3.60;;;;;;;9.11;100.00;99448.75;4468836;32;20088;-76
2022/11/03 06:17:22;;;;;;;8.02;4.05;;;;;;;9.04;100.00;99461.44;4468014;32;20152;-77
2022/11/03 06:19:51;;;;;;;15.85;4.53;;;;;;;9.05;100.00;99463.94;4467068;32;20119;-79
2022/11/03 06:22:27;;;;;;;7.68;3.78;;;;;;;9.19;100.00;99473.41;4450881;32;20107;-81
2022/11/03 06:25:13;;;;;;;8.40;3.42;;;;;;;9.24;100.00;99468.66;4453264;32;20454;-79
2022/11/03 06:27:40;;;;;;;10.38;4.95;;;;;;;9.22;100.00;99472.34;4458456;32;160662;-78
2022/11/03 06:30:21;;;;;;;9.40;4.35;;;;;;;9.25;100.00;99479.97;4466632;32;20527;-80
2022/11/03 06:32:48;;;;;;;7.37;4.60;;;;;;;9.33;100.00;99476.81;4459278;32;20096;-78
2022/11/03 06:35:15;;;;;;;12.98;5.50;;;;;;;9.32;100.00;99480.34;4468124;32;20437;-77
2022/11/03 06:37:43;;;;;;;10.55;4.28;;;;;;;9.30;100.00;99483.09;4465951;32;20121;-80
2022/11/03 06:40:10;;;;;;;6.68;3.47;;;;;;;9.37;100.00;99481.69;4467717;32;20096;-76
2022/11/03 06:42:38;;;;;;;10.70;4.45;;;;;;;9.35;100.00;99483.56;4468212;32;20107;-78
2022/11/03 06:45:21;;;;;;;10.77;4.05;;;;;;;9.41;100.00;99480.50;4468928;32;20093;-77
2022/11/03 06:47:50;;;;;;;9.52;4.20;;;;;;;9.55;100.00;99487.38;4467809;32;20093;-76
2022/11/03 06:50:21;;;;;;;11.05;5.12;;;;;;;9.65;100.00;99486.69;4466259;32;20108;-75
2022/11/03 06:52:48;;;;;;;10.68;5.55;;;;;;;9.78;100.00;99484.84;4466895;32;20130;-77
2022/11/03 06:55:23;;;;;;;11.10;5.62;;;;;;;9.84;100.00;99491.37;4466261;32;20482;-78
2022/11/03 06:57:53;;;;;;;12.57;5.95;;;;;;;9.86;100.00;99481.63;4468594;32;20484;-77
2022/11/03 07:00:25;;;;;;;22.13;6.70;;;;;;;9.96;100.00;99487.81;4466374;32;20156;-76
2022/11/03 07:03:09;;;;;;;17.77;8.48;;;;;;;10.20;100.00;99486.94;4465793;32;20776;-76
2022/11/03 07:05:36;;;;;;;21.08;8.68;;;;;;;10.32;100.00;99482.53;4467349;32;20117;-80
2022/11/03 07:08:23;;;;;;;27.15;10.48;;;;;;;10.45;100.00;99478.06;4465650;32;20126;-77
2022/11/03 07:11:02;;;;;;;26.83;10.88;;;;;;;10.61;100.00;99486.41;4455988;32;20638;-79
2022/11/03 07:13:31;;;;;;;26.67;11.05;;;;;;;10.76;100.00;99491.37;4465582;32;20450;-78
2022/11/03 07:15:59;;;;;;;29.23;13.00;;;;;;;10.86;100.00;99494.97;4465669;32;20108;-82
2022/11/03 07:18:40;;;;;;;31.65;12.25;;;;;;;10.99;100.00;99490.41;4465155;32;20148;-79
2022/11/03 07:21:45;;;;;;;34.08;12.95;;;;;;;11.17;100.00;99495.97;4464968;32;20142;-78
2022/11/03 07:24:26;;;;;;;33.10;12.63;;;;;;;11.13;100.00;99486.69;4465331;32;20080;-77
2022/11/03 07:27:05;;;;;;;30.58;12.75;;;;;;;11.34;100.00;99493.78;4466931;32;20838;-78
2022/11/03 07:29:32;;;;;;;28.55;12.95;;;;;;;11.35;100.00;99498.91;4465912;32;20122;-78
2022/11/03 07:32:00;;;;;;;36.33;13.88;;;;;;;11.33;100.00;99495.56;4463565;32;20100;-80
2022/11/03 07:34:31;;;;;;;32.33;13.57;;;;;;;11.40;100.00;99497.69;4465353;32;20113;-78
2022/11/03 07:36:59;;;;;;;34.60;13.13;;;;;;;11.40;100.00;99490.66;4466343;32;20114;-75
2022/11/03 07:39:33;;;;;;;33.38;13.80;;;;;;;11.56;100.00;99492.03;4462106;32;20116;-78
2022/11/03 07:42:02;;;;;;;33.45;14.00;;;;;;;11.53;100.00;99488.69;4466943;32;20081;-78
2022/11/03 07:44:30;;;;;;;24.70;11.77;;;;;;;11.61;100.00;99492.47;4464298;32;20871;-76
2022/11/03 07:46:57;;;;;;;32.95;13.62;;;;;;;11.54;100.00;99490.37;4465136;32;20162;-77
2022/11/03 07:49:29;;;;;;;29.48;13.30;;;;;;;11.52;100.00;99487.03;4466032;32;20092;-77
2022/11/03 07:51:58;;;;;;;26.92;12.63;;;;;;;11.62;100.00;99481.84;4467044;32;20151;-74
2022/11/03 07:54:31;;;;;;;37.67;13.52;;;;;;;11.67;100.00;99487.59;4460804;32;20145;-75
2022/11/03 07:57:00;;;;;;;29.40;13.90;;;;;;;11.68;100.00;99485.78;4463297;32;20636;-75
2022/11/03 07:59:31;;;;;;;29.20;13.07;;;;;;;11.68;100.00;99481.34;4457843;32;20105;-75
2022/11/03 08:01:58;;;;;;;38.28;15.32;;;;;;;11.65;100.00;99475.53;4465011;32;20161;-76
2022/11/03 08:04:31;;;;;;;31.75;13.65;;;;;;;11.49;100.00;99474.19;4466128;32;20113;-76
2022/11/03 08:06:58;;;;;;;32.88;13.65;;;;;;;11.43;100.00;99472.06;4465855;32;20100;-76
2022/11/03 08:09:28;;;;;;;38.08;15.02;;;;;;;11.48;100.00;99469.06;4463844;32;20085;-75
2022/11/03 08:11:55;;;;;;;39.60;13.65;;;;;;;11.48;100.00;99472.50;4462764;32;20100;-76
2022/11/03 08:14:22;;;;;;;39.03;14.60;;;;;;;11.45;100.00;99464.06;4464213;32;20514;-74
2022/11/03 08:16:49;;;;;;;37.90;14.15;;;;;;;11.15;100.00;99471.66;4461646;32;20127;-76
2022/11/03 08:19:16;;;;;;;36.50;14.30;;;;;;;10.87;100.00;99474.81;4463333;32;20092;-75
2022/11/03 08:21:43;;;;;;;31.73;14.38;;;;;;;11.10;100.00;99470.38;4465121;32;20177;-76
2022/11/03 08:24:10;;;;;;;34.67;13.95;;;;;;;11.08;100.00;99472.28;4464626;32;20172;-74
2022/11/03 08:26:38;;;;;;;32.03;13.90;;;;;;;10.97;100.00;99458.22;4467248;32;20161;-77
2022/11/03 08:29:05;;;;;;;41.22;14.18;;;;;;;10.87;100.00;99469.56;4465683;32;20149;-76
2022/11/03 08:31:32;;;;;;;34.00;14.82;;;;;;;10.96;100.00;99463.59;4465044;32;20466;-74
2022/11/03 08:33:59;;;;;;;33.55;12.57;;;;;;;10.88;100.00;99464.19;4464631;32;20184;-76
2022/11/03 08:36:26;;;;;;;38.90;15.50;;;;;;;10.85;100.00;99471.47;4459900;32;20105;-75
2022/11/03 08:38:53;;;;;;;40.08;14.23;;;;;;;10.95;100.00;99464.56;4465509;32;20157;-75
2022/11/03 08:41:20;;;;;;;41.90;13.07;;;;;;;10.91;100.00;99452.66;4464250;32;20195;-75
2022/11/03 08:43:48;;;;;;;37.42;13.68;;;;;;;10.88;100.00;99448.47;4463470;32;20122;-77
2022/11/03 08:46:14;;;;;;;40.35;14.82;;;;;;;11.03;100.00;99458.72;4463635;32;20093;-75
2022/11/03 08:48:45;;;;;;;31.73;12.02;;;;;;;10.86;100.00;99452.19;4460136;32;20180;-75
2022/11/03 08:51:12;;;;;;;36.35;13.85;;;;;;;11.08;100.00;99449.53;4463474;32;20127;-77
2022/11/03 08:53:43;;;;;;;39.08;14.73;;;;;;;11.21;100.00;99456.41;4466282;32;20500;-77
2022/11/03 08:56:11;;;;;;;35.65;14.73;;;;;;;11.35;100.00;99451.69;4465943;32;20115;-79
2022/11/03 08:58:42;;;;;;;39.10;14.55;;;;;;;11.63;100.00;99445.97;4466662;32;20511;-76
2022/11/03 09:01:10;;;;;;;36.00;14.15;;;;;;;11.54;100.00;99445.75;4466310;32;20682;-76
2022/11/03 09:03:37;;;;;;;34.00;14.45;;;;;;;11.56;100.00;99448.25;4466645;32;20454;-76
2022/11/03 09:06:05;;;;;;;43.13;16.55;;;;;;;11.62;100.00;99447.75;4464373;32;20143;-76
2022/11/03 09:08:32;;;;;;;32.83;14.07;;;;;;;11.71;100.00;99448.78;4463892;32;20105;-75
2022/11/03 09:11:19;;;;;;;31.60;13.30;;;;;;;11.62;100.00;99439.03;4465742;32;20092;-77
2022/11/03 09:13:47;;;;;;;32.33;13.68;;;;;;;11.88;100.00;99429.84;4464892;32;20143;-79
2022/11/03 09:16:14;;;;;;;34.22;14.80;;;;;;;11.82;100.00;99438.19;4465356;32;20109;-77
2022/11/03 09:18:41;;;;;;;36.47;14.13;;;;;;;11.80;100.00;99442.75;4467138;32;20108;-77
2022/11/03 09:21:08;;;;;;;31.85;14.75;;;;;;;11.76;100.00;99436.09;4459761;32;20100;-75
2022/11/03 09:23:35;;;;;;;33.45;14.90;;;;;;;11.94;100.00;99435.56;4465240;32;20626;-74
2022/11/03 09:26:04;;;;;;;32.35;14.57;;;;;;;11.82;100.00;99440.81;4462709;32;20108;-73
2022/11/03 09:28:32;;;;;;;38.38;15.90;;;;;;;11.79;100.00;99435.84;4465023;32;20132;-75
2022/11/03 09:30:58;;;;;;;33.65;15.57;;;;;;;11.75;100.00;99431.81;4464858;32;20471;-73
2022/11/03 09:33:26;;;;;;;34.20;14.77;;;;;;;11.69;100.00;99432.34;4463775;32;20115;-74
2022/11/03 09:35:53;;;;;;;28.87;12.95;;;;;;;11.77;100.00;99432.50;4465357;32;20152;-74
2022/11/03 09:38:20;;;;;;;29.08;13.32;;;;;;;11.77;100.00;99427.25;4464564;32;20130;-74
2022/11/03 09:40:47;;;;;;;29.15;13.80;;;;;;;11.46;100.00;99424.56;4465442;32;20100;-77
2022/11/03 09:43:19;;;;;;;29.63;13.68;;;;;;;11.63;100.00;99414.47;4465184;32;20151;-75
2022/11/03 09:45:46;;;;;;;30.40;13.48;;;;;;;11.70;100.00;99413.84;4464894;32;20127;-75
2022/11/03 09:48:14;;;;;;;32.45;13.80;;;;;;;11.65;100.00;99412.53;4463803;32;20116;-76
2022/11/03 09:50:41;;;;;;;37.15;14.73;;;;;;;11.64;100.00;99411.72;4463715;32;20120;-76
2022/11/03 09:53:10;;;;;;;35.28;13.90;;;;;;;11.81;100.00;99412.94;4465585;32;20118;-76
2022/11/03 09:55:38;;;;;;;42.00;14.75;;;;;;;11.84;100.00;99410.03;4466805;32;20092;-75
2022/11/03 09:58:11;;;;;;;40.00;16.40;;;;;;;11.99;100.00;99399.22;4465735;32;20455;-76
2022/11/03 10:00:38;;;;;;;40.42;15.45;;;;;;;11.97;100.00;99406.41;4466936;32;20104;-76
2022/11/03 10:03:09;;;;;;;37.88;15.05;;;;;;;11.66;100.00;99398.47;4470194;32;20156;-76
2022/11/03 10:05:38;;;;;;;37.67;14.93;;;;;;;11.57;100.00;99394.81;4467313;32;20135;-74
2022/11/03 10:08:10;;;;;;;41.08;15.88;;;;;;;11.48;100.00;99390.34;4461113;32;20130;-76
2022/11/03 10:10:39;;;;;;;30.37;13.38;;;;;;;11.59;100.00;99382.38;4463293;32;20192;-76
2022/11/03 10:13:12;;;;;;;34.95;15.23;;;;;;;11.89;100.00;99378.97;4458444;32;20569;-76
2022/11/03 10:15:41;;;;;;;43.75;16.98;;;;;;;11.86;100.00;99375.78;4464767;32;20798;-76
2022/11/03 10:18:09;;;;;;;38.70;15.93;;;;;;;11.98;100.00;99373.94;4466682;32;20127;-76
2022/11/03 10:20:36;;;;;;;38.03;15.82;;;;;;;12.06;100.00;99366.22;4464717;32;20152;-77
2022/11/03 10:23:07;;;;;;;38.92;16.05;;;;;;;12.21;100.00;99366.72;4464350;32;20792;-76
2022/11/03 10:25:37;;;;;;;45.63;15.57;;;;;;;12.37;100.00;99361.78;4463862;32;20101;-77
2022/11/03 10:28:23;;;;;;;44.25;16.30;;;;;;;12.25;100.00;99361.06;4464538;32;20176;-76
2022/11/03 10:31:08;;;;;;;42.13;17.52;;;;;;;12.38;100.00;99349.47;4464149;32;20088;-78
2022/11/03 10:33:40;;;;;;;34.90;14.87;;;;;;;12.00;100.00;99356.25;4465503;32;20530;-77
2022/11/03 10:36:13;;;;;;;34.72;15.50;;;;;;;12.10;100.00;99343.16;4464182;32;20113;-78
2022/11/03 10:38:42;;;;;;;32.40;14.77;;;;;;;11.68;100.00;99346.69;4466529;32;20124;-77
2022/11/03 10:41:15;;;;;;;30.62;13.77;;;;;;;11.57;100.00;99341.47;4461296;32;22557;-77
2022/11/03 10:43:44;;;;;;;31.13;13.97;;;;;;;11.51;100.00;99335.81;4469182;32;20501;-76
2022/11/03 10:46:17;;;;;;;37.70;14.87;;;;;;;11.49;100.00;99334.25;4464364;32;20104;-76
2022/11/03 10:49:15;;;;;;;41.50;15.02;;;;;;;11.33;100.00;99326.88;4463632;32;20147;-76
2022/11/03 10:51:46;;;;;;;37.05;16.48;;;;;;;11.13;100.00;99328.53;4472915;32;20093;-77
2022/11/03 10:54:15;;;;;;;43.95;15.75;;;;;;;10.81;100.00;99332.81;4464077;32;20144;-78
2022/11/03 10:56:43;;;;;;;43.08;16.85;;;;;;;11.03;100.00;99338.09;4461439;32;20649;-76
2022/11/03 10:59:16;;;;;;;50.12;17.70;;;;;;;11.02;100.00;99326.75;4461341;32;20162;-76
2022/11/03 11:01:43;;;;;;;41.67;17.33;;;;;;;10.90;100.00;99319.91;4461439;32;20163;-79
2022/11/03 11:04:17;;;;;;;38.22;15.73;;;;;;;11.09;100.00;99317.44;4462022;32;20164;-78
2022/11/03 11:06:45;;;;;;;44.50;17.50;;;;;;;10.95;100.00;99318.59;4462675;32;20237;-79
2022/11/03 11:09:16;;;;;;;44.17;18.02;;;;;;;10.97;100.00;99308.78;4464439;32;20139;-78
2022/11/03 11:11:58;;;;;;;46.17;18.62;;;;;;;11.01;100.00;99306.75;4463686;32;20466;-77
2022/11/03 11:14:26;;;;;;;45.45;17.80;;;;;;;10.99;100.00;99300.78;4462490;32;20111;-79
2022/11/03 11:16:58;;;;;;;42.58;15.93;;;;;;;11.00;100.00;99297.22;4463180;32;20378;-79
2022/11/03 11:19:26;;;;;;;44.45;16.85;;;;;;;10.88;100.00;99288.56;4464573;32;20104;-77
2022/11/03 11:21:54;;;;;;;44.30;16.60;;;;;;;10.89;100.00;99281.56;4462821;32;20512;-78
2022/11/03 11:24:41;;;;;;;45.33;17.85;;;;;;;10.91;100.00;99287.50;4462702;32;20462;-78
2022/11/03 11:27:42;;;;;;;46.03;17.67;;;;;;;11.01;100.00;99277.94;4412026;32;20329;-78
2022/11/03 11:30:18;;;;;;;50.45;18.37;;;;;;;10.83;100.00;99275.84;4417165;32;20171;-78
2022/11/03 11:32:45;;;;;;;41.75;16.65;;;;;;;10.81;100.00;99277.78;4411366;32;20166;-77
2022/11/03 11:35:15;;;;;;;48.50;17.77;;;;;;;10.68;100.00;99271.06;4414352;32;20106;-78
2022/11/03 11:37:43;;;;;;;50.08;19.15;;;;;;;10.62;100.00;99272.38;4420169;32;20143;-77
2022/11/03 11:40:12;;;;;;;47.92;18.70;;;;;;;10.63;100.00;99267.00;4414502;32;20125;-74
2022/11/03 11:43:02;;;;;;;52.33;17.05;;;;;;;10.81;100.00;99264.69;4419250;32;20131;-73
2022/11/03 11:46:07;;;;;;;50.90;19.20;;;;;;;10.80;100.00;99260.38;4420577;32;20252;-72
2022/11/03 11:48:34;;;;;;;49.13;18.52;;;;;;;10.69;100.00;99249.13;4419463;32;20168;-73
2022/11/03 11:51:02;;;;;;;48.25;19.73;;;;;;;10.55;100.00;99247.63;4419900;32;20159;-73
2022/11/03 11:53:37;;;;;;;50.92;18.58;;;;;;;10.62;100.00;99241.75;4405324;32;20158;-72
2022/11/03 11:56:12;;;;;;;53.70;19.83;;;;;;;10.70;100.00;99242.94;4415731;32;20496;-72
2022/11/03 11:58:39;;;;;;;51.53;19.23;;;;;;;10.71;100.00;99228.88;4419613;32;20117;-73
2022/11/03 12:01:23;;;;;;;51.40;17.85;;;;;;;10.62;100.00;99233.91;4416003;32;20143;-72
2022/11/03 12:03:51;;;;;;;43.03;17.12;;;;;;;10.58;100.00;99219.41;4417349;32;21070;-72
2022/11/03 12:06:31;;;;;;;47.50;18.85;;;;;;;10.40;100.00;99224.34;4465103;32;20100;-71